createdAt,value
2017-08-14T00:00:27.318Z,0
2017-08-14T00:01:07.892Z,0
2017-08-14T00:01:48.461Z,0
2017-08-14T00:02:29.025Z,0
2017-08-14T00:03:09.601Z,0
2017-08-14T00:03:50.172Z,0
2017-08-14T00:04:30.741Z,0
2017-08-14T00:05:11.312Z,0
2017-08-14T00:05:51.882Z,0
2017-08-14T00:06:32.477Z,0
2017-08-14T00:07:13.089Z,0
2017-08-14T00:07:53.667Z,0
2017-08-14T00:08:34.236Z,0
2017-08-14T00:09:14.809Z,0
2017-08-14T00:09:55.411Z,0
2017-08-14T00:10:35.975Z,0
2017-08-14T00:11:16.552Z,0
2017-08-14T00:11:57.122Z,0
2017-08-14T00:12:37.707Z,0
2017-08-14T00:13:18.276Z,0
2017-08-14T00:13:58.843Z,0
2017-08-14T00:14:39.418Z,0
2017-08-14T00:15:20.007Z,0
2017-08-14T00:16:00.565Z,0
2017-08-14T00:16:41.136Z,0
2017-08-14T00:17:21.698Z,0
2017-08-14T00:18:02.281Z,0
2017-08-14T00:18:42.877Z,0
2017-08-14T00:19:23.443Z,0
2017-08-14T00:20:04.015Z,0
2017-08-14T00:20:44.593Z,0
2017-08-14T00:21:25.167Z,0
2017-08-14T00:22:05.751Z,0
2017-08-14T00:22:46.314Z,0
2017-08-14T00:23:26.876Z,0
2017-08-14T00:24:07.469Z,0
2017-08-14T00:24:48.060Z,0
2017-08-14T00:25:28.625Z,0
2017-08-14T00:26:09.201Z,0
2017-08-14T00:26:49.783Z,0
2017-08-14T00:27:30.360Z,0
2017-08-14T00:28:10.954Z,0
2017-08-14T00:28:54.044Z,0
2017-08-14T00:29:34.612Z,0
2017-08-14T00:30:15.181Z,0
2017-08-14T00:30:55.776Z,0
2017-08-14T00:31:36.359Z,0
2017-08-14T00:32:16.941Z,0
2017-08-14T00:32:57.535Z,0
2017-08-14T00:33:38.111Z,0
2017-08-14T00:34:18.701Z,0
2017-08-14T00:34:59.284Z,0
2017-08-14T00:35:39.871Z,0
2017-08-14T00:36:20.447Z,0
2017-08-14T00:37:01.061Z,0
2017-08-14T00:37:41.688Z,0
2017-08-14T00:38:22.315Z,0
2017-08-14T00:39:02.886Z,0
2017-08-14T00:39:43.488Z,0
2017-08-14T00:40:24.081Z,0
2017-08-14T00:41:04.674Z,0
2017-08-14T00:41:45.262Z,0
2017-08-14T00:42:25.842Z,0
2017-08-14T00:43:06.427Z,0
2017-08-14T00:43:46.996Z,0
2017-08-14T00:44:27.592Z,0
2017-08-14T00:45:08.161Z,0
2017-08-14T00:45:48.727Z,0
2017-08-14T00:46:29.309Z,0
2017-08-14T00:47:09.878Z,0
2017-08-14T00:47:50.464Z,0
2017-08-14T00:48:31.046Z,0
2017-08-14T00:49:11.622Z,0
2017-08-14T00:49:52.206Z,0
2017-08-14T00:50:32.767Z,0
2017-08-14T00:51:13.348Z,0
2017-08-14T00:51:53.944Z,0
2017-08-14T00:52:34.543Z,0
2017-08-14T00:53:15.126Z,0
2017-08-14T00:53:55.730Z,0
2017-08-14T00:54:36.304Z,0
2017-08-14T00:55:16.875Z,0
2017-08-14T00:55:57.436Z,0
2017-08-14T00:56:38.007Z,0
2017-08-14T00:57:18.635Z,0
2017-08-14T00:57:59.194Z,0
2017-08-14T00:58:39.767Z,0
2017-08-14T00:59:20.341Z,0
2017-08-14T01:00:00.911Z,0
2017-08-14T01:00:41.510Z,0
2017-08-14T01:01:22.091Z,0
2017-08-14T01:02:02.653Z,0
2017-08-14T01:02:43.228Z,0
2017-08-14T01:03:23.801Z,0
2017-08-14T01:04:04.391Z,0
2017-08-14T01:04:44.963Z,0
2017-08-14T01:05:25.561Z,0
2017-08-14T01:06:06.140Z,0
2017-08-14T01:06:46.718Z,0
2017-08-14T01:07:27.310Z,0
2017-08-14T01:08:07.899Z,0
2017-08-14T01:08:48.472Z,0
2017-08-14T01:09:29.036Z,0
2017-08-14T01:10:09.605Z,0
2017-08-14T01:10:50.187Z,0
2017-08-14T01:11:30.763Z,0
2017-08-14T01:12:11.344Z,0
2017-08-14T01:12:51.929Z,0
2017-08-14T01:13:32.508Z,0
2017-08-14T01:14:13.085Z,0
2017-08-14T01:14:53.656Z,0
2017-08-14T01:15:34.225Z,0
2017-08-14T01:16:14.807Z,0
2017-08-14T01:16:55.388Z,0
2017-08-14T01:17:35.980Z,0
2017-08-14T01:18:16.546Z,0
2017-08-14T01:18:57.106Z,0
2017-08-14T01:19:37.674Z,0
2017-08-14T01:20:18.267Z,0
2017-08-14T01:20:58.838Z,0
2017-08-14T01:21:39.410Z,0
2017-08-14T01:22:19.983Z,0
2017-08-14T01:23:00.563Z,0
2017-08-14T01:23:41.130Z,0
2017-08-14T01:24:21.695Z,0
2017-08-14T01:25:02.248Z,0
2017-08-14T01:25:42.813Z,0
2017-08-14T01:26:23.389Z,0
2017-08-14T01:27:03.958Z,0
2017-08-14T01:27:44.538Z,0
2017-08-14T01:28:25.103Z,0
2017-08-14T01:29:05.697Z,0
2017-08-14T01:29:46.277Z,0
2017-08-14T01:30:26.855Z,0
2017-08-14T01:31:07.423Z,0
2017-08-14T01:31:47.990Z,0
2017-08-14T01:32:28.616Z,0
2017-08-14T01:33:09.200Z,0
2017-08-14T01:33:49.770Z,0
2017-08-14T01:34:30.340Z,0
2017-08-14T01:35:10.912Z,0
2017-08-14T01:35:51.481Z,0
2017-08-14T01:36:32.054Z,0
2017-08-14T01:37:12.639Z,0
2017-08-14T01:37:53.193Z,0
2017-08-14T01:38:33.768Z,0
2017-08-14T01:39:14.377Z,0
2017-08-14T01:39:54.965Z,0
2017-08-14T01:40:35.538Z,0
2017-08-14T01:41:16.112Z,0
2017-08-14T01:41:56.694Z,0
2017-08-14T01:42:37.261Z,0
2017-08-14T01:43:17.834Z,0
2017-08-14T01:43:58.424Z,0
2017-08-14T01:44:38.996Z,0
2017-08-14T01:45:19.585Z,0
2017-08-14T01:46:00.182Z,0
2017-08-14T01:46:40.761Z,0
2017-08-14T01:47:21.332Z,0
2017-08-14T01:48:01.901Z,0
2017-08-14T01:48:42.474Z,0
2017-08-14T01:49:23.043Z,0
2017-08-14T01:50:03.629Z,0
2017-08-14T01:50:44.199Z,0
2017-08-14T01:51:24.763Z,0
2017-08-14T01:52:05.332Z,0
2017-08-14T01:52:45.898Z,0
2017-08-14T01:53:26.486Z,0
2017-08-14T01:54:07.063Z,0
2017-08-14T01:54:47.650Z,0
2017-08-14T01:55:28.236Z,0
2017-08-14T01:56:08.824Z,0
2017-08-14T01:56:49.418Z,0
2017-08-14T01:57:30.028Z,0
2017-08-14T01:58:10.611Z,0
2017-08-14T01:58:51.186Z,0
2017-08-14T01:59:31.760Z,0
2017-08-14T02:00:12.328Z,0
2017-08-14T02:00:52.907Z,0
2017-08-14T02:01:33.465Z,0
2017-08-14T02:02:14.064Z,0
2017-08-14T02:02:54.642Z,0
2017-08-14T02:03:35.217Z,0
2017-08-14T02:04:15.813Z,0
2017-08-14T02:04:56.392Z,0
2017-08-14T02:05:36.965Z,0
2017-08-14T02:06:17.530Z,0
2017-08-14T02:06:58.106Z,0
2017-08-14T02:07:38.678Z,0
2017-08-14T02:08:19.261Z,0
2017-08-14T02:08:59.829Z,0
2017-08-14T02:09:40.421Z,0
2017-08-14T02:10:21.009Z,0
2017-08-14T02:11:01.574Z,0
2017-08-14T02:11:42.145Z,0
2017-08-14T02:12:22.715Z,0
2017-08-14T02:13:03.285Z,0
2017-08-14T02:13:43.860Z,0
2017-08-14T02:14:24.470Z,0
2017-08-14T02:15:05.033Z,0
2017-08-14T02:15:45.611Z,0
2017-08-14T02:16:26.183Z,0
2017-08-14T02:17:06.759Z,0
2017-08-14T02:17:47.325Z,0
2017-08-14T02:18:27.901Z,0
2017-08-14T02:19:08.470Z,0
2017-08-14T02:19:49.042Z,0
2017-08-14T02:20:29.602Z,0
2017-08-14T02:21:10.182Z,0
2017-08-14T02:21:50.745Z,0
2017-08-14T02:22:31.316Z,0
2017-08-14T02:23:11.903Z,0
2017-08-14T02:23:52.486Z,0
2017-08-14T02:24:33.061Z,0
2017-08-14T02:25:13.620Z,0
2017-08-14T02:25:54.192Z,0
2017-08-14T02:26:34.756Z,0
2017-08-14T02:27:15.345Z,0
2017-08-14T02:27:55.908Z,0
2017-08-14T02:28:36.515Z,0
2017-08-14T02:29:17.097Z,0
2017-08-14T02:29:57.666Z,0
2017-08-14T02:30:38.254Z,0
2017-08-14T02:31:18.851Z,0
2017-08-14T02:31:59.417Z,0
2017-08-14T02:32:39.987Z,0
2017-08-14T02:33:20.581Z,0
2017-08-14T02:34:01.174Z,0
2017-08-14T02:34:41.744Z,0
2017-08-14T02:35:22.317Z,0
2017-08-14T02:36:02.878Z,0
2017-08-14T02:36:43.456Z,0
2017-08-14T02:37:24.046Z,0
2017-08-14T02:38:04.612Z,0
2017-08-14T02:38:45.186Z,0
2017-08-14T02:39:25.764Z,0
2017-08-14T02:40:06.334Z,0
2017-08-14T02:40:46.904Z,0
2017-08-14T02:41:27.493Z,0
2017-08-14T02:42:08.066Z,0
2017-08-14T02:42:48.643Z,0
2017-08-14T02:43:29.203Z,0
2017-08-14T02:44:09.772Z,0
2017-08-14T02:44:50.347Z,0
2017-08-14T02:45:30.916Z,0
2017-08-14T02:46:11.488Z,0
2017-08-14T02:46:52.061Z,0
2017-08-14T02:47:32.657Z,0
2017-08-14T02:48:13.248Z,0
2017-08-14T02:48:53.829Z,0
2017-08-14T02:49:34.411Z,0
2017-08-14T02:50:14.972Z,0
2017-08-14T02:50:55.575Z,0
2017-08-14T02:51:36.161Z,0
2017-08-14T02:52:16.761Z,0
2017-08-14T02:52:57.325Z,0
2017-08-14T02:53:37.909Z,0
2017-08-14T02:54:18.488Z,0
2017-08-14T02:54:59.029Z,0
2017-08-14T02:55:39.610Z,0
2017-08-14T02:56:20.205Z,0
2017-08-14T02:57:00.795Z,0
2017-08-14T02:57:41.382Z,0
2017-08-14T02:58:21.953Z,0
2017-08-14T02:59:02.529Z,0
2017-08-14T02:59:43.117Z,0
2017-08-14T03:00:23.705Z,0
2017-08-14T03:01:04.283Z,0
2017-08-14T03:01:44.855Z,0
2017-08-14T03:02:25.427Z,0
2017-08-14T03:03:05.998Z,0
2017-08-14T03:03:46.580Z,0
2017-08-14T03:04:27.156Z,0
2017-08-14T03:05:07.718Z,0
2017-08-14T03:05:48.297Z,0
2017-08-14T03:06:28.860Z,0
2017-08-14T03:07:09.473Z,0
2017-08-14T03:07:50.061Z,0
2017-08-14T03:08:30.624Z,0
2017-08-14T03:09:11.213Z,0
2017-08-14T03:09:51.790Z,0
2017-08-14T03:10:32.357Z,0
2017-08-14T03:11:12.926Z,0
2017-08-14T03:11:53.512Z,0
2017-08-14T03:12:34.092Z,0
2017-08-14T03:13:14.692Z,0
2017-08-14T03:13:55.264Z,0
2017-08-14T03:14:35.831Z,0
2017-08-14T03:15:16.394Z,0
2017-08-14T03:15:56.985Z,0
2017-08-14T03:16:37.545Z,0
2017-08-14T03:17:18.122Z,0
2017-08-14T03:17:58.719Z,0
2017-08-14T03:18:39.287Z,0
2017-08-14T03:19:19.871Z,0
2017-08-14T03:20:00.502Z,0
2017-08-14T03:20:41.074Z,0
2017-08-14T03:21:21.647Z,0
2017-08-14T03:22:02.244Z,0
2017-08-14T03:22:42.835Z,0
2017-08-14T03:23:23.419Z,0
2017-08-14T03:24:04.035Z,0
2017-08-14T03:24:44.601Z,0
2017-08-14T03:25:25.186Z,0
2017-08-14T03:26:05.770Z,0
2017-08-14T03:26:46.329Z,0
2017-08-14T03:27:26.893Z,0
2017-08-14T03:28:07.456Z,0
2017-08-14T03:28:48.053Z,0
2017-08-14T03:29:28.633Z,0
2017-08-14T03:30:09.211Z,0
2017-08-14T03:30:49.806Z,0
2017-08-14T03:31:30.390Z,0
2017-08-14T03:32:10.957Z,0
2017-08-14T03:32:51.528Z,0
2017-08-14T03:33:32.104Z,0
2017-08-14T03:34:12.698Z,0
2017-08-14T03:34:53.268Z,0
2017-08-14T03:35:33.840Z,0
2017-08-14T03:36:14.422Z,0
2017-08-14T03:36:55.008Z,0
2017-08-14T03:37:35.576Z,0
2017-08-14T03:38:16.147Z,0
2017-08-14T03:38:56.737Z,0
2017-08-14T03:39:37.308Z,0
2017-08-14T03:40:17.884Z,0
2017-08-14T03:40:58.470Z,0
2017-08-14T03:41:39.050Z,0
2017-08-14T03:42:19.621Z,0
2017-08-14T03:43:00.208Z,0
2017-08-14T03:43:40.800Z,0
2017-08-14T03:44:21.372Z,0
2017-08-14T03:45:01.932Z,0
2017-08-14T03:45:42.510Z,0
2017-08-14T03:46:23.092Z,0
2017-08-14T03:47:03.647Z,0
2017-08-14T03:47:44.219Z,0
2017-08-14T03:48:24.788Z,0
2017-08-14T03:49:05.366Z,0
2017-08-14T03:49:45.959Z,0
2017-08-14T03:50:26.544Z,0
2017-08-14T03:51:07.144Z,0
2017-08-14T03:51:47.756Z,0
2017-08-14T03:52:28.349Z,0
2017-08-14T03:53:08.915Z,0
2017-08-14T03:53:49.507Z,0
2017-08-14T03:54:30.079Z,0
2017-08-14T03:55:10.671Z,0
2017-08-14T03:55:51.243Z,0
2017-08-14T03:56:31.813Z,0
2017-08-14T03:57:12.384Z,5
2017-08-14T03:57:52.939Z,5
2017-08-14T03:58:33.517Z,5
2017-08-14T03:59:14.075Z,5
2017-08-14T03:59:54.646Z,5
2017-08-14T04:00:35.235Z,5
2017-08-14T04:01:15.811Z,5
2017-08-14T04:01:56.380Z,5
2017-08-14T04:02:36.951Z,5
2017-08-14T04:03:17.537Z,5
2017-08-14T04:03:58.112Z,5
2017-08-14T04:04:38.692Z,5
2017-08-14T04:05:19.257Z,5
2017-08-14T04:05:59.831Z,5
2017-08-14T04:06:40.410Z,5
2017-08-14T04:07:20.981Z,5
2017-08-14T04:08:01.546Z,5
2017-08-14T04:08:42.108Z,5
2017-08-14T04:09:22.698Z,10
2017-08-14T04:10:03.264Z,10
2017-08-14T04:10:43.840Z,10
2017-08-14T04:11:24.421Z,10
2017-08-14T04:12:04.978Z,10
2017-08-14T04:12:45.572Z,10
2017-08-14T04:13:26.172Z,10
2017-08-14T04:14:06.750Z,10
2017-08-14T04:14:47.325Z,10
2017-08-14T04:15:27.949Z,10
2017-08-14T04:16:08.510Z,10
2017-08-14T04:16:49.128Z,10
2017-08-14T04:17:29.836Z,10
2017-08-14T04:18:10.481Z,10
2017-08-14T04:18:51.052Z,10
2017-08-14T04:19:31.629Z,10
2017-08-14T04:20:12.197Z,15
2017-08-14T04:20:52.774Z,15
2017-08-14T04:21:33.367Z,15
2017-08-14T04:22:13.937Z,15
2017-08-14T04:22:54.506Z,15
2017-08-14T04:23:35.103Z,15
2017-08-14T04:24:15.672Z,15
2017-08-14T04:24:56.241Z,15
2017-08-14T04:25:36.857Z,20
2017-08-14T04:26:17.432Z,20
2017-08-14T04:26:58.015Z,20
2017-08-14T04:27:38.606Z,20
2017-08-14T04:28:19.208Z,20
2017-08-14T04:28:59.783Z,25
2017-08-14T04:29:40.405Z,25
2017-08-14T04:30:20.995Z,25
2017-08-14T04:31:01.555Z,25
2017-08-14T04:31:42.173Z,25
2017-08-14T04:32:22.727Z,25
2017-08-14T04:33:03.305Z,25
2017-08-14T04:33:43.874Z,30
2017-08-14T04:34:24.447Z,30
2017-08-14T04:35:05.045Z,30
2017-08-14T04:35:45.587Z,30
2017-08-14T04:36:26.173Z,30
2017-08-14T04:37:06.774Z,35
2017-08-14T04:37:47.374Z,35
2017-08-14T04:38:27.965Z,35
2017-08-14T04:39:08.534Z,35
2017-08-14T04:39:49.112Z,40
2017-08-14T04:40:29.717Z,40
2017-08-14T04:41:10.272Z,40
2017-08-14T04:41:50.868Z,40
2017-08-14T04:42:31.426Z,40
2017-08-14T04:43:11.992Z,45
2017-08-14T04:43:52.587Z,45
2017-08-14T04:44:33.157Z,45
2017-08-14T04:45:13.732Z,50
2017-08-14T04:45:54.304Z,50
2017-08-14T04:46:34.869Z,55
2017-08-14T04:47:15.461Z,55
2017-08-14T04:47:56.032Z,55
2017-08-14T04:48:36.613Z,55
2017-08-14T04:49:17.198Z,55
2017-08-14T04:49:57.829Z,60
2017-08-14T04:50:38.403Z,60
2017-08-14T04:51:18.988Z,60
2017-08-14T04:51:59.573Z,60
2017-08-14T04:52:40.167Z,65
2017-08-14T04:53:20.739Z,65
2017-08-14T04:54:01.346Z,65
2017-08-14T04:54:41.910Z,65
2017-08-14T04:55:22.489Z,65
2017-08-14T04:56:03.079Z,65
2017-08-14T04:56:43.665Z,65
2017-08-14T04:57:24.239Z,65
2017-08-14T04:58:04.812Z,65
2017-08-14T04:58:45.383Z,65
2017-08-14T04:59:25.956Z,65
2017-08-14T05:00:06.546Z,65
2017-08-14T05:00:47.102Z,60
2017-08-14T05:01:27.671Z,60
2017-08-14T05:02:08.243Z,60
2017-08-14T05:02:48.826Z,60
2017-08-14T05:03:29.396Z,60
2017-08-14T05:04:09.964Z,55
2017-08-14T05:04:50.549Z,55
2017-08-14T05:05:31.136Z,55
2017-08-14T05:06:11.714Z,55
2017-08-14T05:06:52.308Z,55
2017-08-14T05:07:32.871Z,60
2017-08-14T05:08:13.438Z,60
2017-08-14T05:08:54.008Z,60
2017-08-14T05:09:34.607Z,60
2017-08-14T05:10:15.195Z,65
2017-08-14T05:10:55.760Z,65
2017-08-14T05:11:36.338Z,65
2017-08-14T05:12:16.908Z,65
2017-08-14T05:12:57.462Z,65
2017-08-14T05:13:38.039Z,65
2017-08-14T05:14:18.611Z,65
2017-08-14T05:14:59.176Z,65
2017-08-14T05:15:39.793Z,70
2017-08-14T05:16:20.364Z,75
2017-08-14T05:17:00.926Z,75
2017-08-14T05:17:41.500Z,75
2017-08-14T05:18:22.080Z,80
2017-08-14T05:19:02.654Z,80
2017-08-14T05:19:43.216Z,80
2017-08-14T05:20:23.790Z,80
2017-08-14T05:21:04.379Z,80
2017-08-14T05:21:44.959Z,80
2017-08-14T05:22:25.530Z,85
2017-08-14T05:23:06.113Z,85
2017-08-14T05:23:46.685Z,85
2017-08-14T05:24:27.270Z,85
2017-08-14T05:25:07.858Z,85
2017-08-14T05:25:48.440Z,90
2017-08-14T05:26:29.002Z,90
2017-08-14T05:27:09.567Z,90
2017-08-14T05:27:50.138Z,90
2017-08-14T05:28:30.753Z,90
2017-08-14T05:29:11.321Z,90
2017-08-14T05:29:51.890Z,95
2017-08-14T05:30:32.498Z,95
2017-08-14T05:31:13.083Z,95
2017-08-14T05:31:53.661Z,95
2017-08-14T05:32:34.255Z,100
2017-08-14T05:33:14.826Z,100
2017-08-14T05:33:55.421Z,100
2017-08-14T05:34:36.007Z,100
2017-08-14T05:35:16.603Z,105
2017-08-14T05:35:57.246Z,105
2017-08-14T05:36:37.819Z,105
2017-08-14T05:37:18.398Z,105
2017-08-14T05:37:58.972Z,105
2017-08-14T05:38:39.561Z,105
2017-08-14T05:39:20.148Z,110
2017-08-14T05:40:00.715Z,110
2017-08-14T05:40:41.298Z,110
2017-08-14T05:41:21.867Z,110
2017-08-14T05:42:02.435Z,110
2017-08-14T05:42:43.005Z,110
2017-08-14T05:43:23.574Z,115
2017-08-14T05:44:04.138Z,115
2017-08-14T05:44:44.720Z,115
2017-08-14T05:45:25.354Z,115
2017-08-14T05:46:05.924Z,115
2017-08-14T05:46:46.488Z,115
2017-08-14T05:47:27.065Z,115
2017-08-14T05:48:07.633Z,120
2017-08-14T05:48:48.214Z,120
2017-08-14T05:49:28.789Z,120
2017-08-14T05:50:09.384Z,120
2017-08-14T05:50:49.957Z,120
2017-08-14T05:51:30.535Z,120
2017-08-14T05:52:11.125Z,150
2017-08-14T05:52:51.713Z,230
2017-08-14T05:53:32.284Z,200
2017-08-14T05:54:12.848Z,125
2017-08-14T05:54:53.425Z,145
2017-08-14T05:55:34.028Z,350
2017-08-14T05:56:14.607Z,655
2017-08-14T05:56:55.203Z,955
2017-08-14T05:57:35.773Z,1205
2017-08-14T05:58:16.339Z,1385
2017-08-14T05:58:56.911Z,1445
2017-08-14T05:59:37.496Z,1340
2017-08-14T06:00:18.079Z,1320
2017-08-14T06:00:58.647Z,1370
2017-08-14T06:01:39.216Z,1460
2017-08-14T06:02:19.814Z,1440
2017-08-14T06:03:00.365Z,1400
2017-08-14T06:03:42.635Z,1425
2017-08-14T06:04:23.205Z,1500
2017-08-14T06:05:03.770Z,1545
2017-08-14T06:05:44.341Z,1515
2017-08-14T06:06:24.924Z,1515
2017-08-14T06:07:05.488Z,1565
2017-08-14T06:07:46.052Z,1550
2017-08-14T06:08:26.627Z,1510
2017-08-14T06:09:07.203Z,1545
2017-08-14T06:09:47.793Z,1630
2017-08-14T06:10:28.385Z,1600
2017-08-14T06:11:08.964Z,1530
2017-08-14T06:11:49.547Z,1535
2017-08-14T06:12:30.138Z,1550
2017-08-14T06:13:10.713Z,1540
2017-08-14T06:13:51.302Z,1520
2017-08-14T06:14:31.887Z,1560
2017-08-14T06:15:12.453Z,1580
2017-08-14T06:15:53.021Z,1550
2017-08-14T06:16:33.652Z,1580
2017-08-14T06:17:14.204Z,1635
2017-08-14T06:17:54.781Z,1650
2017-08-14T06:18:35.375Z,1680
2017-08-14T06:19:15.951Z,1605
2017-08-14T06:19:56.530Z,1555
2017-08-14T06:20:37.111Z,1655
2017-08-14T06:21:17.691Z,1690
2017-08-14T06:21:58.257Z,1640
2017-08-14T06:22:38.839Z,1640
2017-08-14T06:23:19.435Z,1620
2017-08-14T06:24:00.034Z,1615
2017-08-14T06:24:40.666Z,1620
2017-08-14T06:25:21.238Z,1665
2017-08-14T06:26:01.823Z,1690
2017-08-14T06:26:42.389Z,1730
2017-08-14T06:27:22.960Z,1765
2017-08-14T06:28:03.547Z,1745
2017-08-14T06:28:44.123Z,1675
2017-08-14T06:29:24.696Z,1690
2017-08-14T06:30:05.290Z,1665
2017-08-14T06:30:45.862Z,1655
2017-08-14T06:31:26.444Z,1675
2017-08-14T06:32:07.034Z,1660
2017-08-14T06:32:47.613Z,1725
2017-08-14T06:33:28.195Z,1825
2017-08-14T06:34:08.782Z,1795
2017-08-14T06:34:49.383Z,1810
2017-08-14T06:35:29.965Z,1800
2017-08-14T06:36:10.552Z,1805
2017-08-14T06:36:51.160Z,1730
2017-08-14T06:37:31.731Z,1790
2017-08-14T06:38:12.304Z,1840
2017-08-14T06:38:52.930Z,1875
2017-08-14T06:39:33.516Z,1760
2017-08-14T06:40:14.095Z,1725
2017-08-14T06:40:54.697Z,1755
2017-08-14T06:41:35.277Z,1775
2017-08-14T06:42:15.860Z,1790
2017-08-14T06:42:56.436Z,1790
2017-08-14T06:43:37.046Z,1780
2017-08-14T06:44:17.640Z,1740
2017-08-14T06:44:58.225Z,1790
2017-08-14T06:45:38.799Z,1860
2017-08-14T06:46:19.399Z,1815
2017-08-14T06:47:00.058Z,1785
2017-08-14T06:47:40.644Z,1780
2017-08-14T06:48:21.250Z,1775
2017-08-14T06:49:01.825Z,1720
2017-08-14T06:49:42.432Z,1685
2017-08-14T06:50:23.008Z,1740
2017-08-14T06:51:03.587Z,1805
2017-08-14T06:51:44.186Z,1790
2017-08-14T06:52:24.769Z,1780
2017-08-14T06:53:05.343Z,1740
2017-08-14T06:53:45.937Z,1725
2017-08-14T06:54:26.513Z,1705
2017-08-14T06:55:07.096Z,1705
2017-08-14T06:55:47.718Z,1705
2017-08-14T06:56:28.305Z,1710
2017-08-14T06:57:08.895Z,1680
2017-08-14T06:57:49.484Z,1710
2017-08-14T06:58:30.068Z,1725
2017-08-14T06:59:10.644Z,1780
2017-08-14T06:59:51.227Z,1755
2017-08-14T07:00:31.824Z,1750
2017-08-14T07:01:12.393Z,1750
2017-08-14T07:01:52.976Z,1750
2017-08-14T07:02:33.558Z,1710
2017-08-14T07:03:14.160Z,1785
2017-08-14T07:03:54.736Z,1850
2017-08-14T07:04:35.348Z,1885
2017-08-14T07:05:15.942Z,1780
2017-08-14T07:05:56.529Z,1710
2017-08-14T07:06:37.120Z,1720
2017-08-14T07:07:17.710Z,1795
2017-08-14T07:07:58.292Z,1795
2017-08-14T07:08:38.881Z,1730
2017-08-14T07:09:19.472Z,1645
2017-08-14T07:10:00.059Z,1670
2017-08-14T07:10:40.618Z,1645
2017-08-14T07:11:21.194Z,1615
2017-08-14T07:12:01.816Z,1765
2017-08-14T07:12:42.416Z,1875
2017-08-14T07:13:23.009Z,1815
2017-08-14T07:14:03.613Z,1725
2017-08-14T07:14:44.232Z,1710
2017-08-14T07:15:24.812Z,1730
2017-08-14T07:16:05.387Z,1785
2017-08-14T07:16:45.978Z,1805
2017-08-14T07:17:26.568Z,1815
2017-08-14T07:18:07.146Z,1825
2017-08-14T07:18:47.738Z,1820
2017-08-14T07:19:28.319Z,1750
2017-08-14T07:20:08.909Z,1645
2017-08-14T07:20:49.489Z,1570
2017-08-14T07:21:30.081Z,1610
2017-08-14T07:22:10.657Z,1610
2017-08-14T07:22:51.230Z,1595
2017-08-14T07:23:31.855Z,1500
2017-08-14T07:24:12.440Z,1430
2017-08-14T07:24:53.021Z,1380
2017-08-14T07:25:33.600Z,1290
2017-08-14T07:26:14.184Z,1205
2017-08-14T07:26:54.775Z,1100
2017-08-14T07:27:35.356Z,1040
2017-08-14T07:28:15.964Z,975
2017-08-14T07:28:56.556Z,885
2017-08-14T07:29:37.147Z,815
2017-08-14T07:30:17.716Z,765
2017-08-14T07:30:58.307Z,725
2017-08-14T07:31:38.890Z,705
2017-08-14T07:32:19.467Z,690
2017-08-14T07:33:00.044Z,675
2017-08-14T07:33:40.628Z,655
2017-08-14T07:34:21.209Z,635
2017-08-14T07:35:01.790Z,625
2017-08-14T07:35:42.376Z,620
2017-08-14T07:36:22.974Z,615
2017-08-14T07:37:03.550Z,615
2017-08-14T07:37:44.137Z,620
2017-08-14T07:38:24.726Z,620
2017-08-14T07:39:05.306Z,620
2017-08-14T07:39:45.898Z,615
2017-08-14T07:40:26.499Z,615
2017-08-14T07:41:07.062Z,615
2017-08-14T07:41:47.642Z,615
2017-08-14T07:42:28.219Z,605
2017-08-14T07:43:08.817Z,605
2017-08-14T07:43:49.402Z,620
2017-08-14T07:44:29.972Z,610
2017-08-14T07:45:10.553Z,595
2017-08-14T07:45:51.153Z,580
2017-08-14T07:46:31.741Z,575
2017-08-14T07:47:12.324Z,600
2017-08-14T07:47:52.909Z,620
2017-08-14T07:48:33.492Z,610
2017-08-14T07:49:14.094Z,610
2017-08-14T07:49:54.694Z,610
2017-08-14T07:50:35.280Z,610
2017-08-14T07:51:15.906Z,610
2017-08-14T07:51:56.480Z,605
2017-08-14T07:52:37.083Z,585
2017-08-14T07:53:17.680Z,570
2017-08-14T07:53:58.258Z,575
2017-08-14T07:54:38.868Z,580
2017-08-14T07:55:19.456Z,570
2017-08-14T07:56:00.044Z,565
2017-08-14T07:56:40.615Z,570
2017-08-14T07:57:21.210Z,565
2017-08-14T07:58:01.778Z,565
2017-08-14T07:58:42.372Z,565
2017-08-14T07:59:22.965Z,560
2017-08-14T08:00:03.533Z,560
2017-08-14T08:00:44.114Z,560
2017-08-14T08:01:24.727Z,555
2017-08-14T08:02:05.309Z,555
2017-08-14T08:02:45.906Z,550
2017-08-14T08:03:26.481Z,550
2017-08-14T08:04:07.089Z,535
2017-08-14T08:04:47.682Z,530
2017-08-14T08:05:28.266Z,525
2017-08-14T08:06:08.836Z,520
2017-08-14T08:06:49.440Z,505
2017-08-14T08:07:30.041Z,490
2017-08-14T08:08:10.632Z,475
2017-08-14T08:08:51.213Z,460
2017-08-14T08:09:31.809Z,440
2017-08-14T08:10:12.407Z,425
2017-08-14T08:10:53.000Z,415
2017-08-14T08:11:33.636Z,410
2017-08-14T08:12:14.232Z,410
2017-08-14T08:12:54.840Z,405
2017-08-14T08:13:35.423Z,405
2017-08-14T08:14:16.012Z,400
2017-08-14T08:14:56.597Z,400
2017-08-14T08:15:37.165Z,395
2017-08-14T08:16:17.765Z,390
2017-08-14T08:16:58.387Z,390
2017-08-14T08:17:38.968Z,385
2017-08-14T08:18:19.568Z,380
2017-08-14T08:19:00.153Z,375
2017-08-14T08:19:40.744Z,370
2017-08-14T08:20:21.319Z,375
2017-08-14T08:21:01.935Z,360
2017-08-14T08:21:42.513Z,355
2017-08-14T08:22:23.092Z,350
2017-08-14T08:23:03.673Z,340
2017-08-14T08:23:44.248Z,335
2017-08-14T08:24:24.839Z,335
2017-08-14T08:25:05.457Z,335
2017-08-14T08:25:46.067Z,325
2017-08-14T08:26:26.640Z,320
2017-08-14T08:27:07.227Z,320
2017-08-14T08:27:47.798Z,310
2017-08-14T08:28:28.399Z,305
2017-08-14T08:29:08.979Z,300
2017-08-14T08:29:49.562Z,295
2017-08-14T08:30:30.127Z,295
2017-08-14T08:31:10.698Z,295
2017-08-14T08:31:51.337Z,290
2017-08-14T08:32:31.924Z,285
2017-08-14T08:33:12.514Z,280
2017-08-14T08:33:53.096Z,280
2017-08-14T08:34:33.684Z,275
2017-08-14T08:35:14.254Z,275
2017-08-14T08:35:54.838Z,270
2017-08-14T08:36:35.427Z,270
2017-08-14T08:37:16.024Z,265
2017-08-14T08:37:56.622Z,260
2017-08-14T08:38:37.189Z,260
2017-08-14T08:39:17.773Z,255
2017-08-14T08:39:58.349Z,255
2017-08-14T08:40:38.935Z,250
2017-08-14T08:41:19.513Z,250
2017-08-14T08:42:00.107Z,250
2017-08-14T08:42:40.712Z,250
2017-08-14T08:43:21.445Z,245
2017-08-14T08:44:01.999Z,245
2017-08-14T08:44:42.572Z,245
2017-08-14T08:45:23.165Z,245
2017-08-14T08:46:03.740Z,240
2017-08-14T08:46:44.324Z,240
2017-08-14T08:47:24.924Z,240
2017-08-14T08:48:05.511Z,245
2017-08-14T08:48:46.086Z,235
2017-08-14T08:49:26.673Z,235
2017-08-14T08:50:07.250Z,235
2017-08-14T08:50:47.824Z,230
2017-08-14T08:51:28.405Z,225
2017-08-14T08:52:08.975Z,225
2017-08-14T08:52:49.566Z,225
2017-08-14T08:53:30.141Z,225
2017-08-14T08:54:10.763Z,225
2017-08-14T08:54:51.359Z,220
2017-08-14T08:55:31.986Z,215
2017-08-14T08:56:12.578Z,215
2017-08-14T08:56:53.155Z,210
2017-08-14T08:57:33.732Z,205
2017-08-14T08:58:14.315Z,205
2017-08-14T08:58:54.902Z,205
2017-08-14T08:59:35.479Z,195
2017-08-14T09:00:16.055Z,195
2017-08-14T09:00:56.621Z,195
2017-08-14T09:01:37.205Z,190
2017-08-14T09:02:17.791Z,190
2017-08-14T09:02:58.368Z,190
2017-08-14T09:03:38.966Z,185
2017-08-14T09:04:19.534Z,185
2017-08-14T09:05:00.106Z,185
2017-08-14T09:05:40.697Z,185
2017-08-14T09:06:21.282Z,180
2017-08-14T09:07:01.859Z,180
2017-08-14T09:07:42.439Z,180
2017-08-14T09:08:23.019Z,180
2017-08-14T09:09:03.605Z,175
2017-08-14T09:09:44.182Z,180
2017-08-14T09:10:24.759Z,175
2017-08-14T09:11:05.344Z,140
2017-08-14T09:11:45.936Z,170
2017-08-14T09:12:26.522Z,170
2017-08-14T09:13:07.134Z,140
2017-08-14T09:13:47.738Z,140
2017-08-14T09:14:28.324Z,160
2017-08-14T09:15:08.934Z,165
2017-08-14T09:15:49.534Z,170
2017-08-14T09:16:30.123Z,170
2017-08-14T09:17:10.717Z,170
2017-08-14T09:17:51.289Z,175
2017-08-14T09:18:31.884Z,180
2017-08-14T09:19:12.484Z,180
2017-08-14T09:19:53.055Z,180
2017-08-14T09:20:33.620Z,180
2017-08-14T09:21:14.191Z,175
2017-08-14T09:21:54.793Z,180
2017-08-14T09:22:35.377Z,160
2017-08-14T09:23:15.942Z,145
2017-08-14T09:23:56.520Z,140
2017-08-14T09:24:37.089Z,135
2017-08-14T09:25:17.662Z,135
2017-08-14T09:25:58.305Z,135
2017-08-14T09:26:38.921Z,140
2017-08-14T09:27:19.502Z,145
2017-08-14T09:28:00.162Z,165
2017-08-14T09:28:40.741Z,170
2017-08-14T09:29:21.323Z,165
2017-08-14T09:30:01.921Z,145
2017-08-14T09:30:42.529Z,140
2017-08-14T09:31:23.098Z,140
2017-08-14T09:32:03.678Z,145
2017-08-14T09:32:44.269Z,140
2017-08-14T09:33:24.869Z,135
2017-08-14T09:34:05.465Z,135
2017-08-14T09:34:46.026Z,130
2017-08-14T09:35:26.599Z,130
2017-08-14T09:36:07.192Z,130